sensor_id;sensor_type;location;lat;lon;timestamp;P1;durP1;ratioP1;P2;durP2;ratioP2
11305;SDS011;5708;50.660;6.778;2023-06-05T00:01:27;6.63;;;2.50;;
11305;SDS011;5708;50.660;6.778;2023-06-05T00:03:53;6.00;;;2.55;;
11305;SDS011;5708;50.660;6.778;2023-06-05T00:06:18;4.65;;;2.50;;
11305;SDS011;5708;50.660;6.778;2023-06-05T00:08:44;4.85;;;2.72;;
11305;SDS011;5708;50.660;6.778;2023-06-05T00:11:09;3.70;;;2.20;;
11305;SDS011;5708;50.660;6.778;2023-06-05T00:13:34;6.03;;;2.50;;
11305;SDS011;5708;50.660;6.778;2023-06-05T00:16:00;4.55;;;2.55;;
11305;SDS011;5708;50.660;6.778;2023-06-05T00:18:28;4.28;;;2.38;;
11305;SDS011;5708;50.660;6.778;2023-06-05T00:20:54;4.75;;;2.40;;
11305;SDS011;5708;50.660;6.778;2023-06-05T00:23:20;4.60;;;2.35;;
11305;SDS011;5708;50.660;6.778;2023-06-05T00:25:45;4.50;;;2.30;;
11305;SDS011;5708;50.660;6.778;2023-06-05T00:28:11;5.30;;;2.28;;
11305;SDS011;5708;50.660;6.778;2023-06-05T00:30:36;4.40;;;2.17;;
11305;SDS011;5708;50.660;6.778;2023-06-05T00:33:02;4.63;;;2.50;;
11305;SDS011;5708;50.660;6.778;2023-06-05T00:35:27;6.10;;;2.70;;
11305;SDS011;5708;50.660;6.778;2023-06-05T00:37:53;8.13;;;2.65;;
11305;SDS011;5708;50.660;6.778;2023-06-05T00:40:18;5.28;;;2.70;;
11305;SDS011;5708;50.660;6.778;2023-06-05T00:42:43;5.85;;;3.22;;
11305;SDS011;5708;50.660;6.778;2023-06-05T00:45:09;4.60;;;2.50;;
11305;SDS011;5708;50.660;6.778;2023-06-05T00:47:34;4.90;;;2.60;;
11305;SDS011;5708;50.660;6.778;2023-06-05T00:50:00;5.15;;;2.50;;
11305;SDS011;5708;50.660;6.778;2023-06-05T00:52:29;5.85;;;2.45;;
11305;SDS011;5708;50.660;6.778;2023-06-05T00:54:54;5.13;;;2.50;;
11305;SDS011;5708;50.660;6.778;2023-06-05T00:57:20;5.07;;;2.40;;
11305;SDS011;5708;50.660;6.778;2023-06-05T00:59:49;5.88;;;2.60;;
11305;SDS011;5708;50.660;6.778;2023-06-05T01:02:15;5.35;;;2.40;;
11305;SDS011;5708;50.660;6.778;2023-06-05T01:04:41;5.00;;;2.60;;
11305;SDS011;5708;50.660;6.778;2023-06-05T01:07:08;5.82;;;2.60;;
11305;SDS011;5708;50.660;6.778;2023-06-05T01:09:35;6.80;;;2.83;;
11305;SDS011;5708;50.660;6.778;2023-06-05T01:14:35;5.68;;;2.83;;
11305;SDS011;5708;50.660;6.778;2023-06-05T01:17:02;4.85;;;2.40;;
11305;SDS011;5708;50.660;6.778;2023-06-05T01:19:29;7.25;;;2.92;;
11305;SDS011;5708;50.660;6.778;2023-06-05T01:21:55;8.35;;;2.70;;
11305;SDS011;5708;50.660;6.778;2023-06-05T01:24:21;9.30;;;3.25;;
11305;SDS011;5708;50.660;6.778;2023-06-05T01:32:35;6.53;;;3.08;;
11305;SDS011;5708;50.660;6.778;2023-06-05T01:35:03;4.75;;;2.78;;
11305;SDS011;5708;50.660;6.778;2023-06-05T01:37:30;6.03;;;2.63;;
11305;SDS011;5708;50.660;6.778;2023-06-05T01:40:01;5.95;;;2.58;;
11305;SDS011;5708;50.660;6.778;2023-06-05T01:42:29;5.55;;;2.60;;
11305;SDS011;5708;50.660;6.778;2023-06-05T01:44:55;4.90;;;2.88;;
11305;SDS011;5708;50.660;6.778;2023-06-05T01:47:20;6.95;;;3.42;;
11305;SDS011;5708;50.660;6.778;2023-06-05T01:49:46;5.47;;;2.67;;
11305;SDS011;5708;50.660;6.778;2023-06-05T01:52:12;6.22;;;2.78;;
11305;SDS011;5708;50.660;6.778;2023-06-05T01:54:38;5.38;;;2.63;;
11305;SDS011;5708;50.660;6.778;2023-06-05T01:57:04;5.00;;;2.50;;
11305;SDS011;5708;50.660;6.778;2023-06-05T01:59:30;5.22;;;2.78;;
11305;SDS011;5708;50.660;6.778;2023-06-05T02:01:56;7.35;;;2.95;;
11305;SDS011;5708;50.660;6.778;2023-06-05T02:04:22;7.45;;;3.05;;
11305;SDS011;5708;50.660;6.778;2023-06-05T02:06:49;4.60;;;2.70;;
11305;SDS011;5708;50.660;6.778;2023-06-05T02:09:18;6.30;;;2.78;;
11305;SDS011;5708;50.660;6.778;2023-06-05T02:11:44;6.47;;;2.97;;
11305;SDS011;5708;50.660;6.778;2023-06-05T02:14:11;6.22;;;2.83;;
11305;SDS011;5708;50.660;6.778;2023-06-05T02:16:40;12.23;;;2.72;;
11305;SDS011;5708;50.660;6.778;2023-06-05T02:19:08;4.43;;;2.55;;
11305;SDS011;5708;50.660;6.778;2023-06-05T02:21:33;10.65;;;3.08;;
11305;SDS011;5708;50.660;6.778;2023-06-05T02:23:59;4.72;;;2.67;;
11305;SDS011;5708;50.660;6.778;2023-06-05T02:26:25;6.55;;;2.80;;
11305;SDS011;5708;50.660;6.778;2023-06-05T02:28:51;6.28;;;2.50;;
11305;SDS011;5708;50.660;6.778;2023-06-05T02:31:19;5.85;;;2.80;;
11305;SDS011;5708;50.660;6.778;2023-06-05T02:33:52;5.57;;;2.75;;
11305;SDS011;5708;50.660;6.778;2023-06-05T02:36:18;4.93;;;2.60;;
11305;SDS011;5708;50.660;6.778;2023-06-05T02:38:44;5.95;;;2.80;;
11305;SDS011;5708;50.660;6.778;2023-06-05T02:41:10;5.93;;;3.00;;
11305;SDS011;5708;50.660;6.778;2023-06-05T02:43:35;6.03;;;3.03;;
11305;SDS011;5708;50.660;6.778;2023-06-05T02:46:01;7.03;;;3.25;;
11305;SDS011;5708;50.660;6.778;2023-06-05T02:48:26;6.35;;;3.15;;
11305;SDS011;5708;50.660;6.778;2023-06-05T02:50:52;6.45;;;2.90;;
11305;SDS011;5708;50.660;6.778;2023-06-05T02:53:17;4.82;;;2.60;;
11305;SDS011;5708;50.660;6.778;2023-06-05T02:55:43;7.70;;;3.03;;
11305;SDS011;5708;50.660;6.778;2023-06-05T02:58:09;6.15;;;2.80;;
11305;SDS011;5708;50.660;6.778;2023-06-05T03:00:38;8.52;;;3.28;;
11305;SDS011;5708;50.660;6.778;2023-06-05T03:03:03;7.10;;;3.10;;
11305;SDS011;5708;50.660;6.778;2023-06-05T03:05:31;5.65;;;2.70;;
11305;SDS011;5708;50.660;6.778;2023-06-05T03:07:57;7.72;;;2.92;;
11305;SDS011;5708;50.660;6.778;2023-06-05T03:10:22;6.32;;;3.08;;
11305;SDS011;5708;50.660;6.778;2023-06-05T03:12:51;8.52;;;2.90;;
11305;SDS011;5708;50.660;6.778;2023-06-05T03:15:16;5.53;;;2.90;;
11305;SDS011;5708;50.660;6.778;2023-06-05T03:17:42;6.90;;;3.15;;
11305;SDS011;5708;50.660;6.778;2023-06-05T03:20:08;6.78;;;2.78;;
11305;SDS011;5708;50.660;6.778;2023-06-05T03:22:34;5.13;;;2.65;;
11305;SDS011;5708;50.660;6.778;2023-06-05T03:25:00;6.82;;;2.85;;
11305;SDS011;5708;50.660;6.778;2023-06-05T03:27:26;6.53;;;3.35;;
11305;SDS011;5708;50.660;6.778;2023-06-05T03:29:51;6.93;;;2.97;;
11305;SDS011;5708;50.660;6.778;2023-06-05T03:32:16;7.47;;;3.10;;
11305;SDS011;5708;50.660;6.778;2023-06-05T03:34:42;7.70;;;3.00;;
11305;SDS011;5708;50.660;6.778;2023-06-05T03:37:08;5.40;;;3.08;;
11305;SDS011;5708;50.660;6.778;2023-06-05T03:39:33;5.53;;;2.75;;
11305;SDS011;5708;50.660;6.778;2023-06-05T03:41:59;6.90;;;3.00;;
11305;SDS011;5708;50.660;6.778;2023-06-05T03:44:25;7.53;;;3.22;;
11305;SDS011;5708;50.660;6.778;2023-06-05T03:46:50;6.47;;;3.10;;
11305;SDS011;5708;50.660;6.778;2023-06-05T03:49:16;6.72;;;3.33;;
11305;SDS011;5708;50.660;6.778;2023-06-05T03:51:41;5.70;;;3.03;;
11305;SDS011;5708;50.660;6.778;2023-06-05T03:54:08;7.18;;;3.13;;
11305;SDS011;5708;50.660;6.778;2023-06-05T03:56:34;7.70;;;3.08;;
11305;SDS011;5708;50.660;6.778;2023-06-05T03:59:00;5.43;;;3.13;;
11305;SDS011;5708;50.660;6.778;2023-06-05T04:01:37;7.72;;;3.65;;
11305;SDS011;5708;50.660;6.778;2023-06-05T04:04:05;7.18;;;3.63;;
11305;SDS011;5708;50.660;6.778;2023-06-05T04:06:33;7.80;;;3.35;;
11305;SDS011;5708;50.660;6.778;2023-06-05T04:08:59;7.63;;;3.80;;
11305;SDS011;5708;50.660;6.778;2023-06-05T04:11:25;7.45;;;3.00;;
11305;SDS011;5708;50.660;6.778;2023-06-05T04:13:56;7.38;;;3.15;;
11305;SDS011;5708;50.660;6.778;2023-06-05T04:16:21;5.38;;;2.90;;
11305;SDS011;5708;50.660;6.778;2023-06-05T04:18:47;4.90;;;2.90;;
11305;SDS011;5708;50.660;6.778;2023-06-05T04:21:12;6.80;;;3.08;;
11305;SDS011;5708;50.660;6.778;2023-06-05T04:23:37;5.53;;;3.15;;
11305;SDS011;5708;50.660;6.778;2023-06-05T04:26:03;7.72;;;2.80;;
11305;SDS011;5708;50.660;6.778;2023-06-05T04:28:30;4.97;;;2.80;;
11305;SDS011;5708;50.660;6.778;2023-06-05T04:30:56;9.23;;;3.17;;
11305;SDS011;5708;50.660;6.778;2023-06-05T04:33:21;5.90;;;2.90;;
11305;SDS011;5708;50.660;6.778;2023-06-05T04:35:47;6.45;;;3.10;;
11305;SDS011;5708;50.660;6.778;2023-06-05T04:38:12;9.13;;;3.47;;
11305;SDS011;5708;50.660;6.778;2023-06-05T04:40:37;8.82;;;3.35;;
11305;SDS011;5708;50.660;6.778;2023-06-05T04:43:03;6.97;;;3.38;;
11305;SDS011;5708;50.660;6.778;2023-06-05T04:45:29;9.35;;;3.20;;
11305;SDS011;5708;50.660;6.778;2023-06-05T04:47:54;10.30;;;3.40;;
11305;SDS011;5708;50.660;6.778;2023-06-05T04:50:24;10.75;;;3.42;;
11305;SDS011;5708;50.660;6.778;2023-06-05T04:52:51;7.80;;;3.50;;
11305;SDS011;5708;50.660;6.778;2023-06-05T04:55:19;9.23;;;3.40;;
11305;SDS011;5708;50.660;6.778;2023-06-05T04:57:46;8.38;;;3.08;;
11305;SDS011;5708;50.660;6.778;2023-06-05T05:00:13;8.30;;;3.35;;
11305;SDS011;5708;50.660;6.778;2023-06-05T05:02:41;13.45;;;3.90;;
11305;SDS011;5708;50.660;6.778;2023-06-05T05:05:07;12.07;;;3.67;;
11305;SDS011;5708;50.660;6.778;2023-06-05T05:07:33;9.25;;;3.80;;
11305;SDS011;5708;50.660;6.778;2023-06-05T05:10:00;9.95;;;3.00;;
11305;SDS011;5708;50.660;6.778;2023-06-05T05:12:26;10.35;;;3.63;;
11305;SDS011;5708;50.660;6.778;2023-06-05T05:14:51;10.20;;;3.20;;
11305;SDS011;5708;50.660;6.778;2023-06-05T05:17:17;17.77;;;3.50;;
11305;SDS011;5708;50.660;6.778;2023-06-05T05:19:44;10.57;;;3.55;;
11305;SDS011;5708;50.660;6.778;2023-06-05T05:22:10;14.18;;;3.50;;
11305;SDS011;5708;50.660;6.778;2023-06-05T05:24:36;10.95;;;3.53;;
11305;SDS011;5708;50.660;6.778;2023-06-05T05:27:01;10.30;;;3.70;;
11305;SDS011;5708;50.660;6.778;2023-06-05T05:29:27;9.55;;;3.28;;
11305;SDS011;5708;50.660;6.778;2023-06-05T05:31:52;7.10;;;3.30;;
11305;SDS011;5708;50.660;6.778;2023-06-05T05:34:18;9.13;;;3.88;;
11305;SDS011;5708;50.660;6.778;2023-06-05T05:36:43;10.48;;;3.60;;
11305;SDS011;5708;50.660;6.778;2023-06-05T05:39:09;10.25;;;3.60;;
11305;SDS011;5708;50.660;6.778;2023-06-05T05:41:35;11.38;;;4.47;;
11305;SDS011;5708;50.660;6.778;2023-06-05T05:44:00;14.23;;;3.70;;
11305;SDS011;5708;50.660;6.778;2023-06-05T05:46:26;20.42;;;4.50;;
11305;SDS011;5708;50.660;6.778;2023-06-05T05:48:51;11.60;;;4.00;;
11305;SDS011;5708;50.660;6.778;2023-06-05T05:51:17;10.75;;;4.28;;
11305;SDS011;5708;50.660;6.778;2023-06-05T05:53:42;10.63;;;4.15;;
11305;SDS011;5708;50.660;6.778;2023-06-05T05:56:17;9.52;;;4.68;;
11305;SDS011;5708;50.660;6.778;2023-06-05T05:58:42;9.98;;;3.88;;
11305;SDS011;5708;50.660;6.778;2023-06-05T06:01:09;11.13;;;4.28;;
11305;SDS011;5708;50.660;6.778;2023-06-05T06:03:34;11.63;;;4.70;;
11305;SDS011;5708;50.660;6.778;2023-06-05T06:06:05;8.13;;;4.30;;
11305;SDS011;5708;50.660;6.778;2023-06-05T06:08:33;12.77;;;4.93;;
11305;SDS011;5708;50.660;6.778;2023-06-05T06:11:00;10.00;;;5.00;;
11305;SDS011;5708;50.660;6.778;2023-06-05T06:13:28;10.05;;;4.25;;
11305;SDS011;5708;50.660;6.778;2023-06-05T06:15:54;13.25;;;4.32;;
11305;SDS011;5708;50.660;6.778;2023-06-05T06:18:19;10.95;;;4.00;;
11305;SDS011;5708;50.660;6.778;2023-06-05T06:20:45;11.05;;;4.30;;
11305;SDS011;5708;50.660;6.778;2023-06-05T06:23:10;12.55;;;4.43;;
11305;SDS011;5708;50.660;6.778;2023-06-05T06:25:35;8.55;;;4.10;;
11305;SDS011;5708;50.660;6.778;2023-06-05T06:28:02;15.68;;;4.43;;
11305;SDS011;5708;50.660;6.778;2023-06-05T06:30:27;9.95;;;4.13;;
11305;SDS011;5708;50.660;6.778;2023-06-05T06:32:53;12.93;;;4.53;;
11305;SDS011;5708;50.660;6.778;2023-06-05T06:35:22;8.93;;;4.10;;
11305;SDS011;5708;50.660;6.778;2023-06-05T06:37:48;8.40;;;4.20;;
11305;SDS011;5708;50.660;6.778;2023-06-05T06:40:14;9.07;;;4.00;;
11305;SDS011;5708;50.660;6.778;2023-06-05T06:42:39;8.82;;;3.80;;
11305;SDS011;5708;50.660;6.778;2023-06-05T06:45:05;7.07;;;3.70;;
11305;SDS011;5708;50.660;6.778;2023-06-05T06:47:31;10.15;;;4.05;;
11305;SDS011;5708;50.660;6.778;2023-06-05T06:49:57;9.95;;;4.00;;
11305;SDS011;5708;50.660;6.778;2023-06-05T06:52:22;9.48;;;4.30;;
11305;SDS011;5708;50.660;6.778;2023-06-05T06:54:48;6.18;;;3.40;;
11305;SDS011;5708;50.660;6.778;2023-06-05T06:57:14;7.97;;;3.55;;
11305;SDS011;5708;50.660;6.778;2023-06-05T06:59:40;10.10;;;3.63;;
11305;SDS011;5708;50.660;6.778;2023-06-05T07:02:12;13.48;;;4.07;;
11305;SDS011;5708;50.660;6.778;2023-06-05T07:04:40;9.48;;;3.50;;
11305;SDS011;5708;50.660;6.778;2023-06-05T07:07:12;9.40;;;3.90;;
11305;SDS011;5708;50.660;6.778;2023-06-05T07:09:40;8.95;;;3.88;;
11305;SDS011;5708;50.660;6.778;2023-06-05T07:12:10;12.35;;;3.83;;
11305;SDS011;5708;50.660;6.778;2023-06-05T07:14:37;8.38;;;3.42;;
11305;SDS011;5708;50.660;6.778;2023-06-05T07:17:04;10.75;;;4.43;;
11305;SDS011;5708;50.660;6.778;2023-06-05T07:19:30;10.48;;;3.80;;
11305;SDS011;5708;50.660;6.778;2023-06-05T07:21:56;9.05;;;4.10;;
11305;SDS011;5708;50.660;6.778;2023-06-05T07:24:23;7.78;;;3.38;;
11305;SDS011;5708;50.660;6.778;2023-06-05T07:26:53;9.25;;;3.78;;
11305;SDS011;5708;50.660;6.778;2023-06-05T07:29:19;6.90;;;3.53;;
11305;SDS011;5708;50.660;6.778;2023-06-05T07:31:46;7.05;;;3.55;;
11305;SDS011;5708;50.660;6.778;2023-06-05T07:34:12;11.93;;;4.03;;
11305;SDS011;5708;50.660;6.778;2023-06-05T07:36:38;14.23;;;3.78;;
11305;SDS011;5708;50.660;6.778;2023-06-05T07:39:03;9.05;;;3.58;;
11305;SDS011;5708;50.660;6.778;2023-06-05T07:41:29;7.40;;;3.42;;
11305;SDS011;5708;50.660;6.778;2023-06-05T07:43:55;7.63;;;3.80;;
11305;SDS011;5708;50.660;6.778;2023-06-05T07:46:20;9.00;;;3.80;;
11305;SDS011;5708;50.660;6.778;2023-06-05T07:48:46;8.55;;;3.83;;
11305;SDS011;5708;50.660;6.778;2023-06-05T07:51:11;10.48;;;3.67;;
11305;SDS011;5708;50.660;6.778;2023-06-05T07:53:36;8.02;;;3.67;;
11305;SDS011;5708;50.660;6.778;2023-06-05T07:56:02;8.45;;;3.95;;
11305;SDS011;5708;50.660;6.778;2023-06-05T07:58:27;8.75;;;3.40;;
11305;SDS011;5708;50.660;6.778;2023-06-05T08:00:54;7.90;;;2.70;;
11305;SDS011;5708;50.660;6.778;2023-06-05T08:03:21;11.25;;;3.50;;
11305;SDS011;5708;50.660;6.778;2023-06-05T08:05:47;11.80;;;3.13;;
11305;SDS011;5708;50.660;6.778;2023-06-05T08:08:13;7.60;;;2.75;;
11305;SDS011;5708;50.660;6.778;2023-06-05T08:10:39;6.60;;;2.90;;
11305;SDS011;5708;50.660;6.778;2023-06-05T08:13:05;9.60;;;3.65;;
11305;SDS011;5708;50.660;6.778;2023-06-05T08:15:31;9.13;;;3.35;;
11305;SDS011;5708;50.660;6.778;2023-06-05T08:17:57;6.93;;;2.75;;
11305;SDS011;5708;50.660;6.778;2023-06-05T08:20:23;5.13;;;2.50;;
11305;SDS011;5708;50.660;6.778;2023-06-05T08:22:48;5.88;;;2.30;;
11305;SDS011;5708;50.660;6.778;2023-06-05T08:25:14;7.20;;;2.38;;
11305;SDS011;5708;50.660;6.778;2023-06-05T08:27:39;4.95;;;2.53;;
11305;SDS011;5708;50.660;6.778;2023-06-05T08:30:05;7.65;;;2.65;;
11305;SDS011;5708;50.660;6.778;2023-06-05T08:32:31;8.73;;;3.10;;
11305;SDS011;5708;50.660;6.778;2023-06-05T08:34:57;8.07;;;3.03;;
11305;SDS011;5708;50.660;6.778;2023-06-05T08:37:23;8.07;;;3.10;;
11305;SDS011;5708;50.660;6.778;2023-06-05T08:39:48;11.27;;;2.50;;
11305;SDS011;5708;50.660;6.778;2023-06-05T08:42:15;9.13;;;2.40;;
11305;SDS011;5708;50.660;6.778;2023-06-05T08:44:43;11.88;;;3.50;;
11305;SDS011;5708;50.660;6.778;2023-06-05T08:47:12;6.25;;;3.10;;
11305;SDS011;5708;50.660;6.778;2023-06-05T08:49:39;9.25;;;2.85;;
11305;SDS011;5708;50.660;6.778;2023-06-05T08:52:06;7.75;;;2.78;;
11305;SDS011;5708;50.660;6.778;2023-06-05T08:54:34;7.47;;;3.00;;
11305;SDS011;5708;50.660;6.778;2023-06-05T08:57:04;5.53;;;2.58;;
11305;SDS011;5708;50.660;6.778;2023-06-05T08:59:30;6.55;;;2.60;;
11305;SDS011;5708;50.660;6.778;2023-06-05T09:01:59;6.90;;;2.50;;
11305;SDS011;5708;50.660;6.778;2023-06-05T09:04:25;7.70;;;2.90;;
11305;SDS011;5708;50.660;6.778;2023-06-05T09:06:55;9.00;;;2.83;;
11305;SDS011;5708;50.660;6.778;2023-06-05T09:09:24;11.65;;;2.60;;
11305;SDS011;5708;50.660;6.778;2023-06-05T09:12:06;10.15;;;2.88;;
11305;SDS011;5708;50.660;6.778;2023-06-05T09:14:33;9.95;;;2.95;;
11305;SDS011;5708;50.660;6.778;2023-06-05T09:17:00;5.85;;;2.67;;
11305;SDS011;5708;50.660;6.778;2023-06-05T09:19:39;6.60;;;2.90;;
11305;SDS011;5708;50.660;6.778;2023-06-05T09:22:09;5.25;;;2.70;;
11305;SDS011;5708;50.660;6.778;2023-06-05T09:24:35;8.93;;;3.17;;
11305;SDS011;5708;50.660;6.778;2023-06-05T09:27:02;8.32;;;3.20;;
11305;SDS011;5708;50.660;6.778;2023-06-05T09:32:00;7.00;;;3.35;;
11305;SDS011;5708;50.660;6.778;2023-06-05T09:34:28;9.80;;;3.75;;
11305;SDS011;5708;50.660;6.778;2023-06-05T09:36:55;10.00;;;3.75;;
11305;SDS011;5708;50.660;6.778;2023-06-05T09:39:22;7.97;;;3.35;;
11305;SDS011;5708;50.660;6.778;2023-06-05T09:41:50;12.20;;;3.33;;
11305;SDS011;5708;50.660;6.778;2023-06-05T09:44:17;11.15;;;3.42;;
11305;SDS011;5708;50.660;6.778;2023-06-05T09:46:49;13.65;;;3.72;;
11305;SDS011;5708;50.660;6.778;2023-06-05T09:49:18;8.50;;;3.55;;
11305;SDS011;5708;50.660;6.778;2023-06-05T09:51:45;11.68;;;3.88;;
11305;SDS011;5708;50.660;6.778;2023-06-05T09:54:11;11.68;;;3.95;;
11305;SDS011;5708;50.660;6.778;2023-06-05T09:56:37;8.77;;;3.75;;
11305;SDS011;5708;50.660;6.778;2023-06-05T09:59:07;9.60;;;3.80;;
11305;SDS011;5708;50.660;6.778;2023-06-05T10:01:34;12.60;;;3.45;;
11305;SDS011;5708;50.660;6.778;2023-06-05T10:04:08;7.78;;;3.28;;
11305;SDS011;5708;50.660;6.778;2023-06-05T10:06:34;12.07;;;3.65;;
11305;SDS011;5708;50.660;6.778;2023-06-05T10:09:01;12.52;;;3.63;;
11305;SDS011;5708;50.660;6.778;2023-06-05T10:11:28;15.73;;;3.80;;
11305;SDS011;5708;50.660;6.778;2023-06-05T10:13:54;9.50;;;3.45;;
11305;SDS011;5708;50.660;6.778;2023-06-05T10:16:20;11.07;;;3.50;;
11305;SDS011;5708;50.660;6.778;2023-06-05T10:18:46;10.20;;;3.33;;
11305;SDS011;5708;50.660;6.778;2023-06-05T10:21:16;9.88;;;3.35;;
11305;SDS011;5708;50.660;6.778;2023-06-05T10:23:47;9.13;;;3.53;;
11305;SDS011;5708;50.660;6.778;2023-06-05T10:31:57;7.68;;;2.90;;
11305;SDS011;5708;50.660;6.778;2023-06-05T10:39:51;8.25;;;2.92;;
11305;SDS011;5708;50.660;6.778;2023-06-05T10:42:22;8.70;;;2.50;;
11305;SDS011;5708;50.660;6.778;2023-06-05T10:44:50;8.32;;;2.10;;
11305;SDS011;5708;50.660;6.778;2023-06-05T10:52:41;5.93;;;2.60;;
11305;SDS011;5708;50.660;6.778;2023-06-05T10:55:07;6.15;;;2.20;;
11305;SDS011;5708;50.660;6.778;2023-06-05T11:00:21;7.82;;;2.40;;
11305;SDS011;5708;50.660;6.778;2023-06-05T11:02:47;8.15;;;2.35;;
11305;SDS011;5708;50.660;6.778;2023-06-05T11:05:13;6.53;;;2.30;;
11305;SDS011;5708;50.660;6.778;2023-06-05T11:07:38;9.18;;;2.10;;
11305;SDS011;5708;50.660;6.778;2023-06-05T11:10:05;8.40;;;2.50;;
11305;SDS011;5708;50.660;6.778;2023-06-05T11:15:00;6.25;;;2.13;;
11305;SDS011;5708;50.660;6.778;2023-06-05T11:17:30;4.72;;;2.25;;
11305;SDS011;5708;50.660;6.778;2023-06-05T11:20:02;4.57;;;2.25;;
11305;SDS011;5708;50.660;6.778;2023-06-05T11:27:49;3.92;;;1.83;;
11305;SDS011;5708;50.660;6.778;2023-06-05T11:30:19;9.00;;;2.33;;
11305;SDS011;5708;50.660;6.778;2023-06-05T11:32:46;6.65;;;2.40;;
11305;SDS011;5708;50.660;6.778;2023-06-05T11:35:11;5.25;;;1.80;;
11305;SDS011;5708;50.660;6.778;2023-06-05T11:37:37;4.85;;;2.08;;
11305;SDS011;5708;50.660;6.778;2023-06-05T11:40:03;4.10;;;2.00;;
11305;SDS011;5708;50.660;6.778;2023-06-05T11:42:36;3.97;;;1.90;;
11305;SDS011;5708;50.660;6.778;2023-06-05T11:45:04;4.97;;;2.53;;
11305;SDS011;5708;50.660;6.778;2023-06-05T11:47:36;6.10;;;2.20;;
11305;SDS011;5708;50.660;6.778;2023-06-05T11:50:08;6.25;;;1.92;;
11305;SDS011;5708;50.660;6.778;2023-06-05T11:52:35;8.50;;;1.90;;
11305;SDS011;5708;50.660;6.778;2023-06-05T11:55:17;4.07;;;2.10;;
11305;SDS011;5708;50.660;6.778;2023-06-05T11:57:47;6.05;;;1.85;;
11305;SDS011;5708;50.660;6.778;2023-06-05T12:00:21;5.40;;;2.10;;
11305;SDS011;5708;50.660;6.778;2023-06-05T12:02:48;4.72;;;1.90;;
11305;SDS011;5708;50.660;6.778;2023-06-05T12:05:14;4.03;;;2.03;;
11305;SDS011;5708;50.660;6.778;2023-06-05T12:07:39;4.72;;;2.13;;
11305;SDS011;5708;50.660;6.778;2023-06-05T12:10:08;8.77;;;2.22;;
11305;SDS011;5708;50.660;6.778;2023-06-05T12:12:34;6.35;;;2.33;;
11305;SDS011;5708;50.660;6.778;2023-06-05T12:15:16;5.07;;;2.38;;
11305;SDS011;5708;50.660;6.778;2023-06-05T12:17:51;4.20;;;2.10;;
11305;SDS011;5708;50.660;6.778;2023-06-05T12:20:17;6.65;;;2.38;;
11305;SDS011;5708;50.660;6.778;2023-06-05T12:22:43;5.00;;;2.10;;
11305;SDS011;5708;50.660;6.778;2023-06-05T12:25:19;3.67;;;1.98;;
11305;SDS011;5708;50.660;6.778;2023-06-05T12:27:45;6.95;;;2.20;;
11305;SDS011;5708;50.660;6.778;2023-06-05T12:30:11;6.25;;;2.42;;
11305;SDS011;5708;50.660;6.778;2023-06-05T12:32:37;3.80;;;2.08;;
11305;SDS011;5708;50.660;6.778;2023-06-05T12:35:04;7.45;;;2.35;;
11305;SDS011;5708;50.660;6.778;2023-06-05T12:37:34;4.75;;;1.88;;
11305;SDS011;5708;50.660;6.778;2023-06-05T12:40:02;4.78;;;2.08;;
11305;SDS011;5708;50.660;6.778;2023-06-05T12:42:35;6.18;;;2.10;;
11305;SDS011;5708;50.660;6.778;2023-06-05T12:45:02;5.00;;;2.10;;
11305;SDS011;5708;50.660;6.778;2023-06-05T12:47:28;4.38;;;2.20;;
11305;SDS011;5708;50.660;6.778;2023-06-05T12:49:53;6.75;;;2.05;;
11305;SDS011;5708;50.660;6.778;2023-06-05T12:52:20;3.80;;;2.10;;
11305;SDS011;5708;50.660;6.778;2023-06-05T12:54:50;4.47;;;1.80;;
11305;SDS011;5708;50.660;6.778;2023-06-05T12:57:16;8.70;;;2.45;;
11305;SDS011;5708;50.660;6.778;2023-06-05T12:59:41;5.70;;;2.40;;
11305;SDS011;5708;50.660;6.778;2023-06-05T13:02:07;5.15;;;2.20;;
11305;SDS011;5708;50.660;6.778;2023-06-05T13:04:32;5.82;;;2.10;;
11305;SDS011;5708;50.660;6.778;2023-06-05T13:06:58;6.75;;;2.42;;
11305;SDS011;5708;50.660;6.778;2023-06-05T13:09:24;5.65;;;2.40;;
11305;SDS011;5708;50.660;6.778;2023-06-05T13:11:50;4.40;;;2.00;;
11305;SDS011;5708;50.660;6.778;2023-06-05T13:14:15;5.68;;;2.08;;
11305;SDS011;5708;50.660;6.778;2023-06-05T13:16:41;5.32;;;2.00;;
11305;SDS011;5708;50.660;6.778;2023-06-05T13:19:06;4.95;;;2.13;;
11305;SDS011;5708;50.660;6.778;2023-06-05T13:21:32;6.22;;;2.15;;
11305;SDS011;5708;50.660;6.778;2023-06-05T13:23:57;3.53;;;1.95;;
11305;SDS011;5708;50.660;6.778;2023-06-05T13:26:22;5.82;;;2.35;;
11305;SDS011;5708;50.660;6.778;2023-06-05T13:28:48;6.20;;;2.20;;
11305;SDS011;5708;50.660;6.778;2023-06-05T13:31:13;4.93;;;2.20;;
11305;SDS011;5708;50.660;6.778;2023-06-05T13:33:39;5.03;;;2.15;;
11305;SDS011;5708;50.660;6.778;2023-06-05T13:36:05;6.03;;;2.10;;
11305;SDS011;5708;50.660;6.778;2023-06-05T13:38:31;4.60;;;2.13;;
11305;SDS011;5708;50.660;6.778;2023-06-05T13:40:56;5.63;;;2.20;;
11305;SDS011;5708;50.660;6.778;2023-06-05T13:43:22;5.90;;;2.00;;
11305;SDS011;5708;50.660;6.778;2023-06-05T13:45:47;5.70;;;2.22;;
11305;SDS011;5708;50.660;6.778;2023-06-05T13:48:13;3.78;;;2.10;;
11305;SDS011;5708;50.660;6.778;2023-06-05T13:50:38;3.33;;;2.20;;
11305;SDS011;5708;50.660;6.778;2023-06-05T13:53:04;4.32;;;2.13;;
11305;SDS011;5708;50.660;6.778;2023-06-05T13:55:29;5.28;;;2.20;;
11305;SDS011;5708;50.660;6.778;2023-06-05T13:57:55;8.02;;;2.33;;
11305;SDS011;5708;50.660;6.778;2023-06-05T14:00:25;6.03;;;2.38;;
11305;SDS011;5708;50.660;6.778;2023-06-05T14:02:51;6.00;;;2.00;;
11305;SDS011;5708;50.660;6.778;2023-06-05T14:05:16;4.75;;;2.20;;
11305;SDS011;5708;50.660;6.778;2023-06-05T14:07:42;7.20;;;1.92;;
11305;SDS011;5708;50.660;6.778;2023-06-05T14:10:07;5.75;;;2.10;;
11305;SDS011;5708;50.660;6.778;2023-06-05T14:12:33;4.55;;;2.30;;
11305;SDS011;5708;50.660;6.778;2023-06-05T14:14:58;4.68;;;2.10;;
11305;SDS011;5708;50.660;6.778;2023-06-05T14:17:24;6.10;;;2.17;;
11305;SDS011;5708;50.660;6.778;2023-06-05T14:19:49;7.22;;;2.30;;
11305;SDS011;5708;50.660;6.778;2023-06-05T14:22:15;5.53;;;2.15;;
11305;SDS011;5708;50.660;6.778;2023-06-05T14:24:40;8.10;;;2.38;;
11305;SDS011;5708;50.660;6.778;2023-06-05T14:27:07;4.68;;;2.13;;
11305;SDS011;5708;50.660;6.778;2023-06-05T14:29:34;5.13;;;2.15;;
11305;SDS011;5708;50.660;6.778;2023-06-05T14:32:00;5.28;;;2.30;;
11305;SDS011;5708;50.660;6.778;2023-06-05T14:34:26;5.97;;;2.30;;
11305;SDS011;5708;50.660;6.778;2023-06-05T14:36:51;6.70;;;2.30;;
11305;SDS011;5708;50.660;6.778;2023-06-05T14:39:17;5.85;;;2.40;;
11305;SDS011;5708;50.660;6.778;2023-06-05T14:41:43;4.95;;;2.47;;
11305;SDS011;5708;50.660;6.778;2023-06-05T14:44:09;4.28;;;2.17;;
11305;SDS011;5708;50.660;6.778;2023-06-05T14:46:34;5.53;;;2.20;;
11305;SDS011;5708;50.660;6.778;2023-06-05T14:49:00;3.83;;;2.20;;
11305;SDS011;5708;50.660;6.778;2023-06-05T14:51:25;17.85;;;3.15;;
11305;SDS011;5708;50.660;6.778;2023-06-05T14:53:50;7.80;;;2.40;;
11305;SDS011;5708;50.660;6.778;2023-06-05T14:56:16;9.38;;;2.38;;
11305;SDS011;5708;50.660;6.778;2023-06-05T14:58:41;5.30;;;2.35;;
11305;SDS011;5708;50.660;6.778;2023-06-05T15:01:07;6.40;;;2.50;;
11305;SDS011;5708;50.660;6.778;2023-06-05T15:03:32;11.57;;;2.70;;
11305;SDS011;5708;50.660;6.778;2023-06-05T15:05:58;5.13;;;2.15;;
11305;SDS011;5708;50.660;6.778;2023-06-05T15:08:23;4.22;;;2.20;;
11305;SDS011;5708;50.660;6.778;2023-06-05T15:10:49;10.00;;;2.70;;
11305;SDS011;5708;50.660;6.778;2023-06-05T15:13:15;7.03;;;2.60;;
11305;SDS011;5708;50.660;6.778;2023-06-05T15:15:40;6.60;;;2.35;;
11305;SDS011;5708;50.660;6.778;2023-06-05T15:18:06;7.43;;;2.60;;
11305;SDS011;5708;50.660;6.778;2023-06-05T15:20:32;7.93;;;2.95;;
11305;SDS011;5708;50.660;6.778;2023-06-05T15:22:58;7.40;;;2.65;;
11305;SDS011;5708;50.660;6.778;2023-06-05T15:25:23;5.15;;;2.35;;
11305;SDS011;5708;50.660;6.778;2023-06-05T15:27:50;6.93;;;2.63;;
11305;SDS011;5708;50.660;6.778;2023-06-05T15:30:16;8.95;;;2.63;;
11305;SDS011;5708;50.660;6.778;2023-06-05T15:32:41;9.20;;;2.90;;
11305;SDS011;5708;50.660;6.778;2023-06-05T15:35:12;7.78;;;2.80;;